AXM964 VQPR-VNKT
Flight info
| Callsign | AXM964 |
|---|---|
| Flight time | 0h 54m |
| Altitude | 36000 |
| Route | PRO G348 KIMTI KMTI2R |
| Aircraft | A20N/M-SDE2E3FGHIRWXY/LB1 |
Departure
| Time | 2025-12-29 15:23 |
|---|---|
| Airport | Paro International Airport (VQPR) |
Arrival
| Time | 2025-12-29 16:18 |
|---|---|
| Airport | Tribhuvan International Airport (VNKT) |
| Time | Latitude | Longitude | Altitude | Speed | Heading |
|---|---|---|---|---|---|
| 2025-12-29 15:08 | 27.40729 | 89.42039 | 7367 ft | 0 kts | 241° |
| 2025-12-29 15:13 | 27.40747 | 89.42076 | 7368 ft | 3 kts | 241° |
| 2025-12-29 15:13 | 27.40751 | 89.42099 | 7367 ft | 0 kts | 288° |
| 2025-12-29 15:15 | 27.40752 | 89.42097 | 7368 ft | 1 kts | 296° |
| 2025-12-29 15:16 | 27.40756 | 89.42090 | 7366 ft | 1 kts | 305° |
| 2025-12-29 15:16 | 27.40764 | 89.42083 | 7369 ft | 0 kts | 329° |
| 2025-12-29 15:17 | 27.40804 | 89.42067 | 7368 ft | 0 kts | 10° |
| 2025-12-29 15:18 | 27.40849 | 89.42036 | 7367 ft | 12 kts | 326° |
| 2025-12-29 15:19 | 27.40887 | 89.42054 | 7368 ft | 0 kts | 68° |
| 2025-12-29 15:19 | 27.40888 | 89.42055 | 7369 ft | 1 kts | 62° |
| 2025-12-29 15:20 | 27.40899 | 89.42077 | 7370 ft | 6 kts | 59° |
| 2025-12-29 15:20 | 27.40882 | 89.42116 | 7373 ft | 0 kts | 151° |
| 2025-12-29 15:22 | 27.40254 | 89.42514 | 7366 ft | 114 kts | 150° |
| 2025-12-29 15:22 | 27.38549 | 89.43749 | 8093 ft | 152 kts | 127° |
| 2025-12-29 15:23 | 27.36868 | 89.46432 | 9517 ft | 160 kts | 172° |
| 2025-12-29 15:23 | 27.34416 | 89.46957 | 10015 ft | 198 kts | 168° |
| 2025-12-29 15:24 | 27.33032 | 89.47008 | 10481 ft | 202 kts | 189° |
| 2025-12-29 15:24 | 27.30863 | 89.45206 | 11488 ft | 197 kts | 243° |
| 2025-12-29 15:25 | 27.29791 | 89.42428 | 12556 ft | 197 kts | 250° |
| 2025-12-29 15:25 | 27.27620 | 89.40594 | 13171 ft | 233 kts | 180° |
| 2025-12-29 15:26 | 27.22313 | 89.40057 | 14222 ft | 276 kts | 216° |
| 2025-12-29 15:26 | 27.20904 | 89.38563 | 14461 ft | 287 kts | 237° |
| 2025-12-29 15:27 | 27.18194 | 89.31954 | 15372 ft | 337 kts | 250° |
| 2025-12-29 15:27 | 27.16304 | 89.26963 | 16263 ft | 357 kts | 247° |
| 2025-12-29 15:28 | 27.15237 | 89.24418 | 16845 ft | 362 kts | 246° |
| 2025-12-29 15:28 | 27.12967 | 89.19276 | 18068 ft | 370 kts | 245° |
| 2025-12-29 15:29 | 27.10614 | 89.14066 | 19193 ft | 377 kts | 245° |
| 2025-12-29 15:29 | 27.08244 | 89.08796 | 20355 ft | 379 kts | 246° |
| 2025-12-29 15:30 | 27.05871 | 89.03506 | 21523 ft | 383 kts | 246° |
| 2025-12-29 15:30 | 27.02247 | 88.95423 | 23212 ft | 389 kts | 246° |
| 2025-12-29 15:31 | 26.99813 | 88.89997 | 24135 ft | 393 kts | 246° |
| 2025-12-29 15:33 | 26.89971 | 88.71238 | 27159 ft | 404 kts | 242° |
| 2025-12-29 15:35 | 26.76577 | 88.46739 | 30527 ft | 410 kts | 243° |
| 2025-12-29 15:37 | 26.66987 | 88.27786 | 33129 ft | 391 kts | 255° |
| 2025-12-29 15:39 | 26.71607 | 88.05676 | 34077 ft | 387 kts | 303° |
| 2025-12-29 15:41 | 26.85026 | 87.86885 | 34084 ft | 385 kts | 303° |
| 2025-12-29 15:43 | 26.99824 | 87.65606 | 34083 ft | 384 kts | 303° |
| 2025-12-29 15:45 | 27.11295 | 87.49049 | 34086 ft | 383 kts | 303° |
| 2025-12-29 15:47 | 27.24327 | 87.30170 | 34090 ft | 382 kts | 303° |
| 2025-12-29 15:49 | 27.32211 | 87.09153 | 34096 ft | 373 kts | 274° |
| 2025-12-29 15:51 | 27.33441 | 86.85848 | 34110 ft | 374 kts | 274° |
| 2025-12-29 15:53 | 27.34635 | 86.62559 | 34103 ft | 372 kts | 274° |
| 2025-12-29 15:55 | 27.35813 | 86.38959 | 34105 ft | 379 kts | 274° |
| 2025-12-29 15:57 | 27.36929 | 86.15770 | 29237 ft | 375 kts | 275° |
| 2025-12-29 15:59 | 27.37886 | 85.95101 | 26568 ft | 328 kts | 275° |
| 2025-12-29 16:00 | 27.38344 | 85.85012 | 24844 ft | 317 kts | 275° |
| 2025-12-29 16:00 | 27.38559 | 85.80092 | 23916 ft | 312 kts | 275° |
| 2025-12-29 16:01 | 27.38774 | 85.75248 | 22934 ft | 311 kts | 275° |
| 2025-12-29 16:01 | 27.38987 | 85.70505 | 21867 ft | 310 kts | 275° |
| 2025-12-29 16:02 | 27.39201 | 85.65680 | 21005 ft | 307 kts | 275° |
| 2025-12-29 16:02 | 27.39511 | 85.58531 | 19628 ft | 304 kts | 275° |
| 2025-12-29 16:03 | 27.39615 | 85.56157 | 19182 ft | 303 kts | 275° |
| 2025-12-29 16:03 | 27.39818 | 85.51400 | 18275 ft | 303 kts | 275° |
| 2025-12-29 16:04 | 27.40015 | 85.46687 | 17247 ft | 302 kts | 275° |
| 2025-12-29 16:04 | 27.40215 | 85.41978 | 15940 ft | 299 kts | 274° |
| 2025-12-29 16:05 | 27.40408 | 85.37357 | 14674 ft | 292 kts | 274° |
| 2025-12-29 16:05 | 27.40501 | 85.35094 | 14084 ft | 287 kts | 275° |
| 2025-12-29 16:06 | 27.39167 | 85.28702 | 12192 ft | 276 kts | 269° |
| 2025-12-29 16:06 | 27.40000 | 85.24646 | 11042 ft | 267 kts | 295° |
| 2025-12-29 16:07 | 27.42393 | 85.21496 | 9848 ft | 272 kts | 326° |
| 2025-12-29 16:07 | 27.46093 | 85.21147 | 9014 ft | 289 kts | 23° |
| 2025-12-29 16:08 | 27.48446 | 85.24823 | 8993 ft | 304 kts | 64° |
| 2025-12-29 16:08 | 27.51230 | 85.27750 | 8957 ft | 260 kts | 15° |
| 2025-12-29 16:09 | 27.54578 | 85.29042 | 8951 ft | 254 kts | 17° |
| 2025-12-29 16:09 | 27.56219 | 85.29793 | 8573 ft | 253 kts | 18° |
| 2025-12-29 16:09 | 27.59390 | 85.31250 | 8144 ft | 242 kts | 19° |
| 2025-12-29 16:10 | 27.64077 | 85.33377 | 7069 ft | 243 kts | 21° |
| 2025-12-29 16:11 | 27.67610 | 85.34966 | 4531 ft | 287 kts | 21° |
| 2025-12-29 16:11 | 27.70620 | 85.36316 | 4686 ft | 161 kts | 24° |
| 2025-12-29 16:12 | 27.72158 | 85.38166 | 5389 ft | 201 kts | 95° |
| 2025-12-29 16:12 | 27.70185 | 85.39390 | 6808 ft | 202 kts | 194° |
| 2025-12-29 16:13 | 27.66630 | 85.38379 | 6259 ft | 325 kts | 195° |
| 2025-12-29 16:13 | 27.62408 | 85.37099 | 7401 ft | 261 kts | 196° |
| 2025-12-29 16:13 | 27.60763 | 85.36638 | 7676 ft | 232 kts | 195° |
| 2025-12-29 16:14 | 27.56473 | 85.34952 | 7108 ft | 201 kts | 207° |
| 2025-12-29 16:15 | 27.57561 | 85.32628 | 7046 ft | 219 kts | 8° |
| 2025-12-29 16:15 | 27.60618 | 85.34228 | 6396 ft | 245 kts | 23° |
| 2025-12-29 16:16 | 27.62202 | 85.34837 | 5943 ft | 232 kts | 12° |
| 2025-12-29 16:16 | 27.65094 | 85.34503 | 5148 ft | 196 kts | 355° |
| 2025-12-29 16:17 | 27.67575 | 85.34949 | 4521 ft | 162 kts | 23° |
| 2025-12-29 16:17 | 27.69312 | 85.35757 | 4397 ft | 98 kts | 22° |
| 2025-12-29 16:17 | 27.69694 | 85.35812 | 4401 ft | 36 kts | 20° |
| 2025-12-29 16:18 | 27.69795 | 85.35857 | 4400 ft | 20 kts | 21° |
| 2025-12-29 16:19 | 27.69964 | 85.35911 | 4400 ft | 0 kts | 285° |
| 2025-12-29 16:19 | 27.69990 | 85.35833 | 4401 ft | 0 kts | 292° |